Startpagina
METAR-TAF:

METAR-TAF

Vliegvelden :

Aeroporto Internacional de Rio Branco

Rio Branco, Acre, Brazilië

breedte: 10-00S, lengte: 067-48W, hoogte: 142 m

Actueel weer

Dit bericht is 31 minuten geleden gemaakt, om 23:00 UTC
Wind 2 kt uit het noordwesten
Temperatuur 29°C
Vochtigheid 74%
Druk 1008 hPa
Zicht 10 km of meer
Verspreide wolken op 2300 ft
Weinig wolken op 3500 ft, Stapelwolken.
Verspreide wolken op 10000 ft

METAR: SBRB 242300Z 32002KT 9999 SCT023 FEW035TCU SCT100 29/24 Q1008

Tijdstip: 18:31 (23:31 UTC)

Verwachting

Dit bericht is 7 uur en het 3 minuten geleden gemaakt, om 16:28 UTC
Verwachting geldig van 24 om 18 UTC tot 25 om 06 UTC
Wind 5 kt uit het noordwesten
Zicht 10 km of meer
Verspreide wolken op 2500 ft
Wijzigt naar
van 25 om 00 UTC tot 25 om 02 UTC
Wind 5 kt uit het noordnoordoosten

TAF: SBRB 241628Z 2418/2506 32005KT 9999 SCT025 TX30/2418Z TN22/2506Z BECMG 2500/2502 03005KT RMK PHQ

Waarnemingen en weersverwachtingen van meer dan 4000 vliegvelden (METAR en TAF).

De beschikbare stations zijn de gele en rode punten op de kaart.

Ga met uw muis naar het station om de naam te zien.

Klik dan om waarnemingen en weersverwachtingen te zien.

kaart wijzigen: klik op de groene knoppen met een zwart kruis om in te zoomen, op de groene knop met een streepje om uit te zoomen of op de groene pijlen voor aangrenzende kaarten.


METAR-TAF: